Time;durP1;ratioP1;P1;durP2;ratioP2;P2;SDS_P1;SDS_P2;PMS_P1;PMS_P2;Temp;Humidity;BMP_temperature;BMP_pressure;BME280_temperature;BME280_humidity;BME280_pressure;Samples;Min_cycle;Max_cycle;Signal;HPM_P1;HPM_P2
2023/01/24 00:00:50;;;;;;;10.73;7.13;;;2.60;99.90;;;;;;5114955;27;20047;-84
2023/01/24 00:03:16;;;;;;;11.30;7.55;;;2.60;99.90;;;;;;5086085;27;20047;-82
2023/01/24 00:05:43;;;;;;;13.25;8.60;;;2.60;99.90;;;;;;5085053;27;20042;-83
2023/01/24 00:08:19;;;;;;;12.05;7.53;;;2.60;99.90;;;;;;5095924;27;20132;-86
2023/01/24 00:10:44;;;;;;;11.70;7.88;;;2.60;99.90;;;;;;5102019;27;20058;-82
2023/01/24 00:13:12;;;;;;;11.63;7.43;;;2.60;99.90;;;;;;5111810;27;20035;-81
2023/01/24 00:15:40;;;;;;;13.05;8.43;;;2.80;99.90;;;;;;5094703;27;20042;-82
2023/01/24 00:18:06;;;;;;;12.13;8.23;;;2.60;99.90;;;;;;5098261;27;20039;-83
2023/01/24 00:20:32;;;;;;;12.20;8.57;;;2.60;99.90;;;;;;5088515;27;20099;-82
2023/01/24 00:22:58;;;;;;;12.50;7.93;;;2.60;99.90;;;;;;5086135;27;20125;-82
2023/01/24 00:25:24;;;;;;;12.70;8.25;;;3.00;99.90;;;;;;5068901;27;20063;-82
2023/01/24 00:27:49;;;;;;;11.75;7.38;;;2.50;99.90;;;;;;5071069;27;20055;-83
2023/01/24 00:30:15;;;;;;;13.40;8.18;;;2.50;99.90;;;;;;5065398;27;20039;-82
2023/01/24 00:32:41;;;;;;;13.70;8.13;;;2.60;99.90;;;;;;5098721;27;20129;-83
2023/01/24 00:35:13;;;;;;;14.13;8.13;;;2.70;99.90;;;;;;5077305;27;20054;-81
2023/01/24 00:37:40;;;;;;;13.68;8.40;;;1.50;99.90;;;;;;5099837;27;20488;-85
2023/01/24 00:40:07;;;;;;;13.15;8.57;;;2.60;99.90;;;;;;5111545;27;20423;-83
2023/01/24 00:42:33;;;;;;;11.65;7.60;;;2.60;99.90;;;;;;5067284;27;20049;-82
2023/01/24 00:44:59;;;;;;;12.88;8.60;;;2.80;99.90;;;;;;5084462;27;20043;-83
2023/01/24 00:47:25;;;;;;;12.00;7.65;;;2.60;99.90;;;;;;5067271;27;20514;-82
2023/01/24 00:49:51;;;;;;;11.35;8.27;;;2.60;99.90;;;;;;5077621;27;20176;-84
2023/01/24 00:52:17;;;;;;;14.63;9.20;;;2.60;99.90;;;;;;5067348;27;20043;-82
2023/01/24 00:54:43;;;;;;;12.55;7.93;;;3.70;99.90;;;;;;5068437;27;20545;-82
2023/01/24 00:57:08;;;;;;;13.77;8.38;;;2.60;99.90;;;;;;5078830;27;20528;-82
2023/01/24 00:59:34;;;;;;;12.18;8.30;;;2.60;99.90;;;;;;5101646;27;20134;-82
2023/01/24 01:02:00;;;;;;;12.05;8.38;;;1.50;99.90;;;;;;5069012;27;20120;-84
2023/01/24 01:04:26;;;;;;;12.60;8.13;;;2.60;99.90;;;;;;5081436;27;20051;-83
2023/01/24 01:06:52;;;;;;;12.30;8.15;;;2.90;99.90;;;;;;5066433;27;20039;-82
2023/01/24 01:09:17;;;;;;;13.20;8.68;;;2.60;99.90;;;;;;5099670;27;20536;-81
2023/01/24 01:11:43;;;;;;;13.48;8.63;;;2.60;99.90;;;;;;5067237;27;20047;-81
2023/01/24 01:14:09;;;;;;;13.40;8.75;;;2.60;99.90;;;;;;5096306;27;20100;-83
2023/01/24 01:16:38;;;;;;;13.95;8.98;;;2.60;99.90;;;;;;5103468;27;20050;-82
2023/01/24 01:19:05;;;;;;;14.02;9.50;;;2.60;99.90;;;;;;5113865;27;20509;-82
2023/01/24 01:21:32;;;;;;;15.80;9.27;;;1.00;99.90;;;;;;5097269;27;20051;-82
2023/01/24 01:23:58;;;;;;;12.27;8.48;;;4.00;99.90;;;;;;5100503;27;20103;-84
2023/01/24 01:26:24;;;;;;;14.48;9.15;;;1.50;99.90;;;;;;5086553;27;20476;-81
2023/01/24 01:28:50;;;;;;;13.10;8.77;;;2.60;99.90;;;;;;5496933;23;20811;-82
2023/01/24 01:31:16;;;;;;;12.98;8.80;;;2.60;99.90;;;;;;5009622;28;20411;-81
2023/01/24 01:33:43;;;;;;;11.90;8.15;;;3.30;99.90;;;;;;4978893;28;20042;-81
2023/01/24 01:36:09;;;;;;;14.43;9.68;;;2.60;99.90;;;;;;4956780;28;20042;-82
2023/01/24 01:38:35;;;;;;;13.68;8.93;;;2.90;99.90;;;;;;4965855;28;20685;-82
2023/01/24 01:41:01;;;;;;;14.15;9.68;;;2.60;99.90;;;;;;4980153;28;20054;-83
2023/01/24 01:43:29;;;;;;;15.23;8.70;;;2.70;99.90;;;;;;4960629;28;20558;-83
2023/01/24 01:46:00;;;;;;;12.90;8.98;;;2.70;99.90;;;;;;4980577;28;20492;-83
2023/01/24 01:48:46;;;;;;;14.35;9.25;;;2.70;99.90;;;;;;5012204;28;20037;-83
2023/01/24 01:51:22;;;;;;;13.48;9.18;;;2.70;99.90;;;;;;4963975;28;20103;-83
2023/01/24 01:54:02;;;;;;;15.13;9.82;;;4.10;99.90;;;;;;5017298;28;20042;-83
2023/01/24 01:56:39;;;;;;;16.00;10.02;;;2.70;99.90;;;;;;4969311;28;20049;-82
2023/01/24 01:59:11;;;;;;;13.95;8.55;;;2.70;99.90;;;;;;4981470;28;20081;-82
2023/01/24 02:01:37;;;;;;;13.98;8.90;;;2.70;99.90;;;;;;5019116;28;20104;-82
2023/01/24 02:04:09;;;;;;;17.15;11.15;;;2.70;99.90;;;;;;4976936;28;20076;-82
2023/01/24 02:07:00;;;;;;;17.23;10.45;;;3.30;99.90;;;;;;5018012;28;20061;-82
2023/01/24 02:09:33;;;;;;;16.10;10.02;;;3.50;99.90;;;;;;5001314;28;20317;-82
2023/01/24 02:12:03;;;;;;;16.30;10.15;;;2.70;99.90;;;;;;5001494;28;20050;-82
2023/01/24 02:17:18;;;;;;;14.93;9.75;;;2.70;99.90;;;;;;4984712;28;20697;-82
2023/01/24 02:20:06;;;;;;;16.65;10.38;;;2.70;99.90;;;;;;4967678;28;20168;-82
2023/01/24 02:23:11;;;;;;;15.38;9.95;;;2.70;99.90;;;;;;4984770;28;20049;-82
2023/01/24 02:25:58;;;;;;;17.48;10.48;;;2.70;99.90;;;;;;4966227;28;20061;-82
2023/01/24 02:28:24;;;;;;;17.42;11.23;;;2.70;99.90;;;;;;4961774;28;20047;-82
2023/01/24 02:30:50;;;;;;;15.93;10.40;;;2.80;99.90;;;;;;4989335;28;20057;-82
2023/01/24 02:33:19;;;;;;;16.52;10.68;;;2.70;99.90;;;;;;4992941;28;20041;-81
2023/01/24 02:35:45;;;;;;;17.17;11.15;;;3.20;99.90;;;;;;4961825;28;20046;-82
2023/01/24 02:38:28;;;;;;;16.65;11.00;;;2.80;99.90;;;;;;4988627;28;20790;-82
2023/01/24 02:41:06;;;;;;;18.77;11.85;;;2.70;99.90;;;;;;4983923;28;20054;-81
2023/01/24 02:43:36;;;;;;;17.92;10.57;;;2.70;99.90;;;;;;4979940;28;20054;-83
2023/01/24 02:46:02;;;;;;;18.50;11.38;;;2.70;99.90;;;;;;4998584;28;20567;-80
2023/01/24 02:48:28;;;;;;;16.65;9.50;;;2.70;99.90;;;;;;4979312;28;20147;-82
2023/01/24 02:53:39;;;;;;;16.70;10.25;;;2.70;99.90;;;;;;5015624;28;20381;-84
2023/01/24 02:58:53;;;;;;;14.65;9.90;;;2.70;99.90;;;;;;5013077;28;21140;-80
2023/01/24 03:01:20;;;;;;;18.05;10.77;;;3.20;99.90;;;;;;4980111;28;20500;-82
2023/01/24 03:03:46;;;;;;;17.17;10.05;;;2.80;99.90;;;;;;4962539;28;20061;-81
2023/01/24 03:06:14;;;;;;;17.08;10.57;;;2.80;99.90;;;;;;4976669;28;20042;-82
2023/01/24 03:08:40;;;;;;;17.17;10.85;;;3.10;99.90;;;;;;4982694;28;20111;-82
2023/01/24 03:11:07;;;;;;;18.35;10.32;;;2.80;99.90;;;;;;4983100;28;20054;-82
2023/01/24 03:35:32;;;;;;;15.68;9.85;;;2.90;99.90;;;;;;5013398;28;20491;-81
2023/01/24 03:40:43;;;;;;;15.18;9.98;;;2.80;99.90;;;;;;5014005;28;20185;-82
2023/01/24 03:43:09;;;;;;;15.77;9.32;;;3.00;99.90;;;;;;4979282;28;20094;-82
2023/01/24 03:45:37;;;;;;;16.92;10.23;;;2.70;99.90;;;;;;4981048;28;20049;-83
2023/01/24 03:48:09;;;;;;;15.80;9.65;;;2.80;99.90;;;;;;4962099;28;20042;-82
2023/01/24 03:53:28;;;;;;;15.75;9.38;;;2.80;99.90;;;;;;5015750;28;20050;-82
2023/01/24 03:55:56;;;;;;;15.73;9.68;;;3.00;99.90;;;;;;4978132;28;20556;-82
2023/01/24 03:58:23;;;;;;;15.88;9.85;;;4.30;99.90;;;;;;4999878;28;20140;-82
2023/01/24 04:00:49;;;;;;;15.02;9.23;;;2.80;99.90;;;;;;4985906;28;20061;-82
2023/01/24 04:03:15;;;;;;;15.15;9.15;;;2.80;99.90;;;;;;4975548;28;20096;-82
2023/01/24 04:05:41;;;;;;;15.18;9.90;;;2.80;99.90;;;;;;4961102;28;20058;-82
2023/01/24 04:08:07;;;;;;;14.38;9.68;;;2.80;99.90;;;;;;4962952;28;20046;-82
2023/01/24 04:10:33;;;;;;;14.07;9.38;;;2.80;99.90;;;;;;4997622;28;20120;-82
2023/01/24 04:12:59;;;;;;;14.52;9.40;;;2.90;99.90;;;;;;4960827;28;20640;-81
2023/01/24 04:15:28;;;;;;;14.13;8.73;;;2.80;99.90;;;;;;4982601;28;20046;-82
2023/01/24 04:17:59;;;;;;;14.02;9.10;;;2.80;99.90;;;;;;4978158;28;20089;-82
2023/01/24 04:20:27;;;;;;;14.30;8.45;;;3.90;99.90;;;;;;4962444;28;20057;-83
2023/01/24 04:22:53;;;;;;;14.68;9.02;;;2.80;99.90;;;;;;4982802;28;20060;-83
2023/01/24 04:25:19;;;;;;;14.98;9.18;;;2.80;99.90;;;;;;4960756;28;20046;-82
2023/01/24 04:27:47;;;;;;;13.82;8.85;;;2.80;99.90;;;;;;4981877;28;20065;-83
2023/01/24 04:30:15;;;;;;;12.98;8.65;;;3.00;99.90;;;;;;5015763;28;20045;-84
2023/01/24 04:32:42;;;;;;;16.85;10.05;;;2.80;99.90;;;;;;4983473;28;20093;-83
2023/01/24 04:35:09;;;;;;;14.40;8.52;;;2.80;99.90;;;;;;4982635;28;20045;-83
2023/01/24 04:37:35;;;;;;;17.05;10.30;;;2.80;99.90;;;;;;4953434;28;20050;-83
2023/01/24 04:40:01;;;;;;;14.10;9.15;;;2.80;99.90;;;;;;4982449;28;20550;-83
2023/01/24 04:42:27;;;;;;;13.13;8.82;;;2.80;99.90;;;;;;5004420;28;20541;-82
2023/01/24 04:44:53;;;;;;;14.30;8.90;;;2.80;99.90;;;;;;5000547;28;20042;-82
2023/01/24 04:47:19;;;;;;;13.35;8.65;;;2.80;99.90;;;;;;4988837;28;20046;-82
2023/01/24 04:49:45;;;;;;;13.93;8.40;;;2.80;99.90;;;;;;4963437;28;20050;-82
2023/01/24 04:52:12;;;;;;;15.30;8.57;;;2.80;99.90;;;;;;4985403;28;20091;-82
2023/01/24 04:54:39;;;;;;;14.85;9.23;;;2.80;99.90;;;;;;4974883;28;20403;-82
2023/01/24 04:57:05;;;;;;;14.98;9.27;;;2.80;99.90;;;;;;4979172;28;20049;-82
2023/01/24 04:59:31;;;;;;;13.77;8.93;;;2.80;99.90;;;;;;4977155;28;20052;-82
2023/01/24 05:01:56;;;;;;;14.05;8.73;;;2.80;99.90;;;;;;4978401;28;20540;-82
2023/01/24 05:04:22;;;;;;;12.75;8.15;;;2.80;99.90;;;;;;4972374;28;20762;-82
2023/01/24 05:06:48;;;;;;;13.95;9.40;;;3.10;99.90;;;;;;4998245;28;20060;-82
2023/01/24 05:09:15;;;;;;;13.38;8.60;;;2.80;99.90;;;;;;4999543;28;20487;-82
2023/01/24 05:11:41;;;;;;;13.82;9.05;;;2.80;99.90;;;;;;5008447;28;20164;-81
2023/01/24 05:14:10;;;;;;;13.63;8.90;;;2.30;99.90;;;;;;4960561;28;20055;-82
2023/01/24 05:16:36;;;;;;;12.68;8.45;;;1.60;99.90;;;;;;4956290;28;20049;-82
2023/01/24 05:19:03;;;;;;;12.98;8.35;;;2.70;99.90;;;;;;4964012;28;20069;-82
2023/01/24 05:21:29;;;;;;;14.02;8.13;;;2.70;99.90;;;;;;4961784;28;20064;-82
2023/01/24 05:23:55;;;;;;;13.57;8.25;;;2.70;99.90;;;;;;4956526;28;20050;-82
2023/01/24 05:26:22;;;;;;;13.35;8.60;;;2.70;99.90;;;;;;4963977;28;20061;-82
2023/01/24 05:28:49;;;;;;;13.57;9.05;;;2.70;99.90;;;;;;4984638;28;20487;-82
2023/01/24 05:31:15;;;;;;;15.45;9.00;;;1.90;99.90;;;;;;4980250;28;20054;-82
2023/01/24 05:33:42;;;;;;;12.25;8.45;;;3.40;99.90;;;;;;5016380;28;20065;-81
2023/01/24 05:36:19;;;;;;;13.13;8.13;;;2.80;99.90;;;;;;4979196;28;20057;-82
2023/01/24 05:38:46;;;;;;;12.20;8.25;;;2.80;99.90;;;;;;4983072;28;20066;-82
2023/01/24 05:41:17;;;;;;;13.13;8.38;;;3.00;99.90;;;;;;4983715;28;20282;-82
2023/01/24 05:43:46;;;;;;;13.65;8.73;;;2.70;99.90;;;;;;4966781;28;20092;-82
2023/01/24 05:46:18;;;;;;;14.95;8.90;;;2.80;99.90;;;;;;5018412;28;20042;-83
2023/01/24 05:48:45;;;;;;;12.98;8.55;;;2.80;99.90;;;;;;4985541;28;20129;-82
2023/01/24 05:51:13;;;;;;;13.50;8.80;;;2.70;99.90;;;;;;4979214;28;20054;-81
2023/01/24 05:53:41;;;;;;;13.70;8.68;;;2.80;99.90;;;;;;5017496;28;20119;-82
2023/01/24 05:56:12;;;;;;;13.05;8.63;;;3.30;99.90;;;;;;4987172;28;20049;-82
2023/01/24 05:58:38;;;;;;;13.95;8.50;;;2.70;99.90;;;;;;4979528;28;20041;-82
2023/01/24 06:01:18;;;;;;;15.65;9.55;;;3.00;99.90;;;;;;4968226;28;20053;-82
2023/01/24 06:03:47;;;;;;;15.10;9.60;;;1.00;99.90;;;;;;4978305;28;20048;-82
2023/01/24 06:06:15;;;;;;;13.65;8.63;;;2.70;99.90;;;;;;4964762;28;20196;-82
2023/01/24 06:08:40;;;;;;;13.32;9.07;;;2.70;99.90;;;;;;4984866;28;20818;-82
2023/01/24 06:11:14;;;;;;;15.25;9.65;;;2.70;99.90;;;;;;4991540;28;20061;-82
2023/01/24 06:13:40;;;;;;;14.55;9.20;;;2.70;99.90;;;;;;4962865;28;20297;-82
2023/01/24 06:16:11;;;;;;;14.50;9.15;;;2.80;99.90;;;;;;5001474;28;20089;-82
2023/01/24 06:18:37;;;;;;;16.25;9.90;;;2.70;99.90;;;;;;5015828;28;20046;-82
2023/01/24 06:21:13;;;;;;;13.82;9.10;;;3.60;99.90;;;;;;4968192;28;20079;-82
2023/01/24 06:23:39;;;;;;;16.73;9.27;;;2.70;99.90;;;;;;4978657;28;20073;-81
2023/01/24 06:26:05;;;;;;;16.25;8.80;;;2.70;99.90;;;;;;4987856;28;20069;-82
2023/01/24 06:28:31;;;;;;;16.08;9.52;;;2.70;99.90;;;;;;4974194;28;20415;-82
2023/01/24 06:31:04;;;;;;;13.30;8.55;;;2.70;99.90;;;;;;4972606;28;20065;-82
2023/01/24 06:33:43;;;;;;;16.77;9.57;;;2.70;99.90;;;;;;4987994;28;20073;-82
2023/01/24 06:36:47;;;;;;;14.40;8.80;;;2.80;99.90;;;;;;5001786;28;20050;-82
2023/01/24 06:39:15;;;;;;;13.07;8.55;;;2.70;99.90;;;;;;4980093;28;20149;-82
2023/01/24 06:41:41;;;;;;;13.63;8.88;;;2.70;99.90;;;;;;5001220;28;20041;-82
2023/01/24 06:44:08;;;;;;;12.68;8.23;;;2.60;99.90;;;;;;4983765;28;20041;-81
2023/01/24 06:46:34;;;;;;;13.13;8.27;;;2.70;99.90;;;;;;5008011;28;20152;-82
2023/01/24 06:48:59;;;;;;;12.63;7.80;;;2.60;99.90;;;;;;4973535;28;20049;-82
2023/01/24 06:51:25;;;;;;;11.93;7.90;;;2.60;99.90;;;;;;4965317;28;20054;-82
2023/01/24 06:53:51;;;;;;;12.63;8.10;;;2.60;99.90;;;;;;4998576;28;20046;-82
2023/01/24 06:56:16;;;;;;;12.57;7.68;;;2.60;99.90;;;;;;4975667;28;20089;-82
2023/01/24 06:58:42;;;;;;;14.80;8.02;;;2.60;99.90;;;;;;4991061;28;20405;-80
2023/01/24 07:01:08;;;;;;;12.35;8.07;;;2.60;99.90;;;;;;4972029;28;20789;-82
2023/01/24 07:03:34;;;;;;;11.50;7.38;;;3.10;99.90;;;;;;5003577;28;20053;-81
2023/01/24 07:05:59;;;;;;;11.25;7.32;;;2.60;99.90;;;;;;4985914;28;20054;-81
2023/01/24 07:08:25;;;;;;;12.77;7.75;;;3.00;99.90;;;;;;4999544;28;20070;-82
2023/01/24 07:10:51;;;;;;;13.18;8.05;;;2.60;99.90;;;;;;4982933;28;20050;-81
2023/01/24 07:13:17;;;;;;;12.98;7.57;;;2.70;99.90;;;;;;5001481;28;20045;-80
2023/01/24 07:15:43;;;;;;;12.93;8.23;;;3.20;99.90;;;;;;4980818;28;20052;-81
2023/01/24 07:18:12;;;;;;;12.90;8.07;;;2.60;99.90;;;;;;4955114;28;20046;-81
2023/01/24 07:20:38;;;;;;;12.02;7.65;;;2.60;99.90;;;;;;5001014;28;20053;-81
2023/01/24 07:23:04;;;;;;;12.63;8.15;;;2.60;99.90;;;;;;4949198;28;20108;-83
2023/01/24 07:25:30;;;;;;;12.15;7.60;;;2.60;99.90;;;;;;5007780;28;20103;-83
2023/01/24 07:27:56;;;;;;;11.60;7.40;;;2.60;99.90;;;;;;4991529;28;20182;-82
2023/01/24 07:30:22;;;;;;;12.00;7.47;;;2.60;99.90;;;;;;4993377;28;20535;-81
2023/01/24 07:32:48;;;;;;;13.95;8.18;;;3.00;99.90;;;;;;4960417;28;20168;-82
2023/01/24 07:35:15;;;;;;;12.43;8.00;;;2.60;99.90;;;;;;4973079;28;20042;-80
2023/01/24 07:37:40;;;;;;;11.60;7.72;;;2.60;99.90;;;;;;4967063;28;20110;-81
2023/01/24 07:40:07;;;;;;;12.23;7.43;;;2.60;99.90;;;;;;4994970;28;20462;-81
2023/01/24 07:42:32;;;;;;;15.15;9.38;;;2.60;99.90;;;;;;4987294;28;20515;-81
2023/01/24 07:44:59;;;;;;;13.25;8.45;;;2.60;99.90;;;;;;4980352;28;20084;-80
2023/01/24 07:47:26;;;;;;;15.23;9.98;;;2.60;99.90;;;;;;4963292;28;20065;-81
2023/01/24 07:49:52;;;;;;;14.43;8.50;;;2.60;99.90;;;;;;4986337;28;20046;-81
2023/01/24 07:52:18;;;;;;;13.80;8.70;;;2.60;99.90;;;;;;4991383;28;20084;-81
2023/01/24 07:54:43;;;;;;;15.13;10.07;;;2.60;99.90;;;;;;4990241;28;20078;-82
2023/01/24 07:57:09;;;;;;;15.88;9.52;;;1.40;99.90;;;;;;5001436;28;20124;-88
2023/01/24 07:59:35;;;;;;;14.10;8.82;;;2.60;99.90;;;;;;4998210;28;20046;-82
2023/01/24 08:02:01;;;;;;;14.93;9.35;;;2.60;99.90;;;;;;4988410;28;20436;-83
2023/01/24 08:04:27;;;;;;;15.80;9.73;;;2.80;99.90;;;;;;5005502;28;20168;-83
2023/01/24 08:09:37;;;;;;;16.00;9.50;;;2.60;99.90;;;;;;5011250;28;20590;-82
2023/01/24 08:12:03;;;;;;;15.23;9.32;;;2.60;99.90;;;;;;5014682;28;20053;-82
2023/01/24 08:14:29;;;;;;;15.20;9.55;;;2.60;99.90;;;;;;4996606;28;20049;-81
2023/01/24 08:16:54;;;;;;;14.35;9.30;;;2.50;99.90;;;;;;5007456;28;20140;-81
2023/01/24 08:19:20;;;;;;;15.00;9.35;;;2.60;99.90;;;;;;5005079;28;20670;-82
2023/01/24 08:21:46;;;;;;;15.02;9.80;;;2.60;99.90;;;;;;5008832;28;20543;-83
2023/01/24 08:24:11;;;;;;;16.25;9.85;;;2.60;99.90;;;;;;4975923;28;20050;-83
2023/01/24 08:26:37;;;;;;;16.27;10.63;;;3.00;99.90;;;;;;4955631;28;20050;-82
2023/01/24 08:29:03;;;;;;;15.70;9.50;;;3.00;99.90;;;;;;4980301;28;20061;-82
2023/01/24 08:31:29;;;;;;;17.85;10.50;;;2.60;99.90;;;;;;4985192;28;20074;-82
2023/01/24 08:33:55;;;;;;;16.08;9.32;;;2.60;99.90;;;;;;4959593;28;20132;-81
2023/01/24 08:36:21;;;;;;;14.88;9.35;;;2.60;99.90;;;;;;4956554;28;20042;-81
2023/01/24 08:38:46;;;;;;;17.02;9.95;;;2.60;99.90;;;;;;4957892;28;20095;-81
2023/01/24 08:41:12;;;;;;;16.10;10.57;;;2.60;99.90;;;;;;4971606;28;20951;-80
2023/01/24 08:43:38;;;;;;;15.98;10.00;;;2.60;99.90;;;;;;4972045;28;20057;-81
2023/01/24 08:46:04;;;;;;;17.40;10.93;;;2.60;99.90;;;;;;4955078;28;20057;-81
2023/01/24 08:48:29;;;;;;;17.88;10.68;;;2.70;99.90;;;;;;4971324;28;20050;-81
2023/01/24 08:50:55;;;;;;;16.15;9.82;;;2.70;99.90;;;;;;4963071;28;20095;-81
2023/01/24 08:53:21;;;;;;;18.55;10.77;;;1.90;99.90;;;;;;4989762;28;20806;-80
2023/01/24 08:55:51;;;;;;;17.70;10.90;;;2.70;99.90;;;;;;4972110;28;20581;-80
2023/01/24 08:58:17;;;;;;;19.30;11.43;;;2.70;99.90;;;;;;4971411;28;20457;-80
2023/01/24 09:00:43;;;;;;;19.90;11.82;;;2.80;99.90;;;;;;5006943;28;20076;-79
2023/01/24 09:03:11;;;;;;;17.73;10.60;;;2.70;99.90;;;;;;4959137;28;20161;-80
2023/01/24 09:05:38;;;;;;;19.50;11.18;;;2.70;99.90;;;;;;4963107;28;20057;-81
2023/01/24 09:08:05;;;;;;;16.90;11.18;;;2.70;99.90;;;;;;5006644;28;20077;-81
2023/01/24 09:10:31;;;;;;;19.67;11.68;;;2.70;99.90;;;;;;5012053;28;20042;-80
2023/01/24 09:12:56;;;;;;;16.27;11.13;;;2.70;99.90;;;;;;4976911;28;20123;-81
2023/01/24 09:15:22;;;;;;;16.20;10.00;;;2.70;99.90;;;;;;4958259;28;20085;-81
2023/01/24 09:17:48;;;;;;;16.27;10.80;;;3.00;99.90;;;;;;4974735;28;20053;-81
2023/01/24 09:20:14;;;;;;;17.45;11.00;;;2.70;99.90;;;;;;4956380;28;20077;-81
2023/01/24 09:22:40;;;;;;;18.77;11.20;;;2.70;99.90;;;;;;4973282;28;20046;-80
2023/01/24 09:25:07;;;;;;;18.65;11.60;;;2.70;99.90;;;;;;4977042;28;20049;-81
2023/01/24 09:27:34;;;;;;;18.08;11.70;;;2.80;99.90;;;;;;4990885;28;20049;-81
2023/01/24 09:30:00;;;;;;;18.38;11.43;;;2.70;99.90;;;;;;4958731;28;20152;-80
2023/01/24 09:32:26;;;;;;;19.98;12.32;;;2.80;99.90;;;;;;4941457;28;20050;-81
2023/01/24 09:34:52;;;;;;;19.73;12.32;;;3.10;99.90;;;;;;4973628;28;20048;-81
2023/01/24 09:37:19;;;;;;;19.15;11.98;;;2.80;99.90;;;;;;4989004;28;20049;-80
2023/01/24 09:39:45;;;;;;;18.70;11.95;;;2.80;99.90;;;;;;4977870;28;20045;-80
2023/01/24 09:42:23;;;;;;;19.73;12.80;;;2.80;99.90;;;;;;4992917;28;20084;-81
2023/01/24 09:44:57;;;;;;;20.67;12.82;;;2.80;99.90;;;;;;4960155;28;20073;-81
2023/01/24 09:47:32;;;;;;;20.00;11.30;;;2.80;99.90;;;;;;4958495;28;20061;-80
2023/01/24 09:50:02;;;;;;;19.35;11.52;;;2.80;99.90;;;;;;4958373;28;20133;-80
2023/01/24 09:52:43;;;;;;;21.13;11.98;;;2.80;99.90;;;;;;4996267;28;20085;-81
2023/01/24 09:55:25;;;;;;;19.75;12.02;;;3.10;99.90;;;;;;4979306;28;20042;-81
2023/01/24 09:58:00;;;;;;;20.83;12.77;;;2.80;99.90;;;;;;4997475;28;20057;-80
2023/01/24 10:00:38;;;;;;;17.83;11.88;;;2.80;99.90;;;;;;4976905;28;20098;-81
2023/01/24 10:03:23;;;;;;;20.33;12.35;;;2.80;99.90;;;;;;4996347;28;20049;-81
2023/01/24 10:05:55;;;;;;;19.88;12.18;;;2.80;99.90;;;;;;4992483;28;20116;-81
2023/01/24 10:08:49;;;;;;;21.27;12.40;;;2.80;99.90;;;;;;5011761;28;20769;-81
2023/01/24 10:11:32;;;;;;;20.05;11.50;;;2.90;99.90;;;;;;4976003;28;20079;-81
2023/01/24 10:14:47;;;;;;;19.85;11.93;;;2.90;99.90;;;;;;4974374;28;20137;-82
2023/01/24 10:17:49;;;;;;;22.35;12.60;;;2.90;99.90;;;;;;4971319;28;20121;-81
2023/01/24 10:20:40;;;;;;;21.55;12.57;;;2.90;99.90;;;;;;4972278;28;20176;-81
2023/01/24 10:23:18;;;;;;;19.90;12.02;;;2.90;99.90;;;;;;4991114;28;20096;-81
2023/01/24 10:25:59;;;;;;;23.30;12.30;;;2.90;99.90;;;;;;4971500;28;20061;-81
2023/01/24 10:28:32;;;;;;;19.00;12.27;;;2.90;99.90;;;;;;4975552;28;20125;-82
2023/01/24 10:31:34;;;;;;;20.02;12.18;;;2.90;99.90;;;;;;4956121;28;20592;-82
2023/01/24 10:34:18;;;;;;;20.48;12.35;;;2.90;99.90;;;;;;4957791;28;20050;-82
2023/01/24 10:37:11;;;;;;;18.33;11.55;;;2.90;99.90;;;;;;4968214;28;21854;-81
2023/01/24 10:39:37;;;;;;;19.05;11.07;;;3.00;99.90;;;;;;4977629;28;20282;-81
2023/01/24 10:42:32;;;;;;;19.85;12.73;;;3.00;99.90;;;;;;4956238;28;20058;-81
2023/01/24 10:45:35;;;;;;;17.13;10.32;;;3.00;99.90;;;;;;4970216;28;20073;-81
2023/01/24 10:48:23;;;;;;;20.13;11.70;;;3.00;99.90;;;;;;4951176;28;20534;-80
2023/01/24 10:50:49;;;;;;;19.15;11.15;;;3.20;99.90;;;;;;4974680;28;20054;-81
2023/01/24 10:53:26;;;;;;;19.23;11.48;;;3.00;99.90;;;;;;4967871;28;20635;-81
2023/01/24 10:56:01;;;;;;;19.20;11.70;;;3.00;99.90;;;;;;4987015;28;20084;-81
2023/01/24 10:58:34;;;;;;;20.20;11.13;;;3.10;99.90;;;;;;4984936;28;20503;-81
2023/01/24 11:01:06;;;;;;;16.58;10.85;;;3.10;99.90;;;;;;4966669;28;20554;-81
2023/01/24 11:03:36;;;;;;;18.88;11.00;;;3.00;99.90;;;;;;4968127;28;20050;-83
2023/01/24 11:06:02;;;;;;;17.13;10.52;;;3.00;99.90;;;;;;4954271;28;20061;-82
2023/01/24 11:08:36;;;;;;;18.38;10.63;;;3.00;99.90;;;;;;4954469;28;20149;-81
2023/01/24 11:11:16;;;;;;;18.58;10.60;;;3.00;99.90;;;;;;4983531;28;20046;-79
2023/01/24 11:13:43;;;;;;;17.17;10.20;;;3.00;99.90;;;;;;4971817;28;22412;-80
2023/01/24 11:16:15;;;;;;;18.08;11.02;;;3.00;99.90;;;;;;4970772;28;20652;-81
2023/01/24 11:18:47;;;;;;;18.95;10.80;;;3.00;99.90;;;;;;4980382;28;20043;-80
2023/01/24 11:21:18;;;;;;;18.23;11.18;;;3.00;99.90;;;;;;4966854;28;20038;-81
2023/01/24 11:23:44;;;;;;;18.67;10.05;;;3.00;99.90;;;;;;4961638;28;20514;-81
2023/01/24 11:26:24;;;;;;;16.67;10.15;;;3.00;99.90;;;;;;4978412;28;20472;-81
2023/01/24 11:28:57;;;;;;;17.92;10.25;;;3.00;99.90;;;;;;5001271;28;20108;-81
2023/01/24 11:31:32;;;;;;;16.23;9.80;;;3.00;99.90;;;;;;4986809;28;20070;-81
2023/01/24 11:34:20;;;;;;;16.57;9.93;;;2.50;99.90;;;;;;4977659;28;20129;-78
2023/01/24 11:36:45;;;;;;;14.80;9.95;;;2.20;99.90;;;;;;4972941;28;20625;-80
2023/01/24 11:39:36;;;;;;;17.33;9.60;;;3.10;99.90;;;;;;4963002;28;20128;-83
2023/01/24 11:42:27;;;;;;;14.32;9.43;;;3.10;99.90;;;;;;4965295;28;20046;-83
2023/01/24 11:45:13;;;;;;;15.73;9.15;;;3.10;99.90;;;;;;4976981;28;20068;-80
2023/01/24 11:48:20;;;;;;;16.08;9.30;;;3.10;99.90;;;;;;4953995;28;20050;-81
2023/01/24 11:51:10;;;;;;;15.30;9.57;;;3.10;99.90;;;;;;4974547;28;20194;-81
2023/01/24 11:54:07;;;;;;;13.70;8.48;;;3.10;99.90;;;;;;4957182;28;20137;-81
2023/01/24 11:57:00;;;;;;;14.27;9.15;;;3.10;99.90;;;;;;4964522;28;20042;-82
2023/01/24 11:59:51;;;;;;;16.88;9.43;;;3.10;99.90;;;;;;4945344;28;20057;-80
2023/01/24 12:02:32;;;;;;;12.93;8.60;;;3.10;99.90;;;;;;4968091;28;20515;-81
2023/01/24 12:05:19;;;;;;;13.60;8.52;;;3.10;99.90;;;;;;4992994;28;20054;-81
2023/01/24 12:07:56;;;;;;;14.25;9.00;;;3.10;99.90;;;;;;4960170;28;20042;-80
2023/01/24 12:10:38;;;;;;;14.60;8.57;;;3.20;99.90;;;;;;4998915;28;20548;-81
2023/01/24 12:13:44;;;;;;;15.57;9.57;;;3.10;99.90;;;;;;4960588;28;20133;-80
2023/01/24 12:16:42;;;;;;;16.17;9.27;;;3.10;99.90;;;;;;4977245;28;20093;-81
2023/01/24 12:19:36;;;;;;;15.43;9.32;;;3.10;99.90;;;;;;4991474;28;20083;-81
2023/01/24 12:22:11;;;;;;;14.00;8.80;;;3.10;99.90;;;;;;4977256;28;20133;-81
2023/01/24 12:24:41;;;;;;;13.20;8.93;;;2.80;99.90;;;;;;4976826;28;20054;-82
2023/01/24 12:27:18;;;;;;;12.27;8.10;;;3.10;99.90;;;;;;4999199;28;20587;-82
2023/01/24 12:29:51;;;;;;;12.57;7.95;;;3.00;99.90;;;;;;4959816;28;20046;-81
2023/01/24 12:32:21;;;;;;;16.23;8.75;;;3.00;99.90;;;;;;4984851;28;20490;-81
2023/01/24 12:35:01;;;;;;;14.73;8.77;;;3.10;99.90;;;;;;4963238;28;20137;-82
2023/01/24 12:37:45;;;;;;;13.45;7.93;;;3.10;99.90;;;;;;4985927;28;20570;-82
2023/01/24 12:40:11;;;;;;;12.50;7.22;;;3.10;99.90;;;;;;5018607;28;20546;-82
2023/01/24 12:42:55;;;;;;;14.27;8.60;;;3.10;99.90;;;;;;5017610;28;20046;-82
2023/01/24 12:45:45;;;;;;;13.40;8.20;;;3.10;99.90;;;;;;5003035;28;20588;-81
2023/01/24 12:48:40;;;;;;;14.18;8.27;;;3.10;99.90;;;;;;5002481;28;20050;-80
2023/01/24 12:51:15;;;;;;;13.07;8.50;;;3.10;99.90;;;;;;4993426;28;20112;-80
2023/01/24 12:53:54;;;;;;;14.43;8.52;;;3.10;99.90;;;;;;4995383;28;20088;-81
2023/01/24 12:56:32;;;;;;;14.15;8.10;;;3.10;99.90;;;;;;4963019;28;20082;-81
2023/01/24 12:58:58;;;;;;;11.88;7.50;;;3.10;99.90;;;;;;4979573;28;20069;-82
2023/01/24 13:01:25;;;;;;;11.45;7.93;;;3.10;99.90;;;;;;4970725;28;20060;-82
2023/01/24 13:04:06;;;;;;;13.85;9.13;;;3.10;99.90;;;;;;4985934;28;20152;-83
2023/01/24 13:06:59;;;;;;;12.95;8.20;;;3.10;99.90;;;;;;4963095;28;20081;-82
2023/01/24 13:09:40;;;;;;;12.15;8.00;;;3.10;99.90;;;;;;5019595;28;20163;-81
2023/01/24 13:12:18;;;;;;;13.32;7.75;;;3.10;99.90;;;;;;4978006;28;20100;-81
2023/01/24 13:14:50;;;;;;;12.10;7.32;;;3.10;99.90;;;;;;5002930;28;20053;-81
2023/01/24 13:17:37;;;;;;;12.38;7.97;;;3.10;99.90;;;;;;4984894;28;20076;-81
2023/01/24 13:20:21;;;;;;;12.00;8.10;;;3.00;99.90;;;;;;5014777;28;20578;-81
2023/01/24 13:23:33;;;;;;;14.05;8.43;;;3.00;99.90;;;;;;4999692;28;20061;-81
2023/01/24 13:26:16;;;;;;;14.65;8.50;;;3.10;99.90;;;;;;4977833;28;20058;-81
2023/01/24 13:29:01;;;;;;;13.95;8.63;;;3.00;99.90;;;;;;4986762;28;20403;-82
2023/01/24 13:31:43;;;;;;;14.13;9.05;;;3.00;99.90;;;;;;4988657;28;20094;-81
2023/01/24 13:34:17;;;;;;;14.95;8.73;;;3.00;99.90;;;;;;4982913;28;20062;-81
2023/01/24 13:36:48;;;;;;;15.05;9.20;;;2.90;99.90;;;;;;4983715;28;20112;-80
2023/01/24 13:39:38;;;;;;;14.55;8.73;;;2.90;99.90;;;;;;4960083;28;20043;-81
2023/01/24 13:42:23;;;;;;;13.93;8.77;;;2.80;99.90;;;;;;4966486;28;20185;-82
2023/01/24 13:44:50;;;;;;;12.57;7.90;;;2.80;99.90;;;;;;4979640;28;20042;-82